createdAt,value
2022-12-31T00:00:14.263Z,4.00
2022-12-31T00:01:14.115Z,3.96
2022-12-31T00:02:14.260Z,4.00
2022-12-31T00:03:14.339Z,4.00
2022-12-31T00:04:14.172Z,4.00
2022-12-31T00:05:14.352Z,3.99
2022-12-31T00:06:14.212Z,4.00
2022-12-31T00:07:14.003Z,4.04
2022-12-31T00:08:14.073Z,4.03
2022-12-31T00:09:14.017Z,4.02
2022-12-31T00:10:13.953Z,4.02
2022-12-31T00:11:13.951Z,4.00
2022-12-31T00:12:13.977Z,4.02
2022-12-31T00:13:14.050Z,4.02
2022-12-31T00:14:14.021Z,4.00
2022-12-31T00:15:14.021Z,4.02
2022-12-31T00:16:14.219Z,4.02
2022-12-31T00:17:14.073Z,4.04
2022-12-31T00:18:13.883Z,4.03
2022-12-31T00:19:14.002Z,4.04
2022-12-31T00:20:13.870Z,4.02
2022-12-31T00:21:14.079Z,4.03
2022-12-31T00:22:13.894Z,4.03
2022-12-31T00:23:14.051Z,4.00
2022-12-31T00:24:13.851Z,3.99
2022-12-31T00:25:13.848Z,4.00
2022-12-31T00:26:13.870Z,4.00
2022-12-31T00:27:13.761Z,3.99
2022-12-31T00:28:13.860Z,4.00
2022-12-31T00:29:13.727Z,4.00
2022-12-31T00:30:13.811Z,3.96
2022-12-31T00:31:13.805Z,4.00
2022-12-31T00:32:13.871Z,4.00
2022-12-31T00:33:14.031Z,4.03
2022-12-31T00:34:13.872Z,4.03
2022-12-31T00:35:13.717Z,4.04
2022-12-31T00:36:13.656Z,4.07
2022-12-31T00:37:13.621Z,4.10
2022-12-31T00:38:13.627Z,4.13
2022-12-31T00:39:13.716Z,4.14
2022-12-31T00:40:13.582Z,4.14
2022-12-31T00:41:13.633Z,4.18
2022-12-31T00:42:13.554Z,4.18
2022-12-31T00:43:13.692Z,4.14
2022-12-31T00:44:13.539Z,4.18
2022-12-31T00:45:13.702Z,4.18
2022-12-31T00:46:13.668Z,4.20
2022-12-31T00:47:13.715Z,4.20
2022-12-31T00:48:13.521Z,4.18
2022-12-31T00:49:13.427Z,4.20
2022-12-31T00:50:13.415Z,4.20
2022-12-31T00:51:13.412Z,4.18
2022-12-31T00:52:13.488Z,4.18
2022-12-31T00:53:13.709Z,4.18
2022-12-31T00:54:13.584Z,4.18
2022-12-31T00:55:13.478Z,4.20
2022-12-31T00:56:13.534Z,4.16
2022-12-31T00:57:13.451Z,4.18
2022-12-31T00:58:13.363Z,4.20
2022-12-31T00:59:13.379Z,4.16
2022-12-31T01:00:13.560Z,4.18
2022-12-31T01:01:13.491Z,4.16
2022-12-31T01:02:13.740Z,4.16
2022-12-31T01:03:13.403Z,4.14
2022-12-31T01:04:13.266Z,4.13
2022-12-31T01:05:13.243Z,4.14
2022-12-31T01:06:13.230Z,4.13
2022-12-31T01:07:13.202Z,4.14
2022-12-31T01:08:13.324Z,4.18
2022-12-31T01:09:13.238Z,4.18
2022-12-31T01:10:13.241Z,4.20
2022-12-31T01:11:13.253Z,4.18
2022-12-31T01:12:13.273Z,4.18
2022-12-31T01:13:13.500Z,4.22
2022-12-31T01:14:13.250Z,4.22
2022-12-31T01:15:13.410Z,4.21
2022-12-31T01:16:13.335Z,4.21
2022-12-31T01:17:13.091Z,4.21
2022-12-31T01:18:13.230Z,4.22
2022-12-31T01:19:13.141Z,4.22
2022-12-31T01:20:13.076Z,4.25
2022-12-31T01:21:13.087Z,4.28
2022-12-31T01:22:13.038Z,4.30
2022-12-31T01:23:13.052Z,4.30
2022-12-31T01:24:13.052Z,4.31
2022-12-31T01:25:12.923Z,4.32
2022-12-31T01:26:13.213Z,4.36
2022-12-31T01:27:13.071Z,4.36
2022-12-31T01:28:13.240Z,4.36
2022-12-31T01:29:15.008Z,4.36
2022-12-31T01:30:12.972Z,4.39
2022-12-31T01:31:13.062Z,4.38
2022-12-31T01:32:12.957Z,4.39
2022-12-31T01:33:12.904Z,4.39
2022-12-31T01:34:12.904Z,4.39
2022-12-31T01:35:12.910Z,4.40
2022-12-31T01:36:12.919Z,4.42
2022-12-31T01:37:13.101Z,4.39
2022-12-31T01:38:12.900Z,4.40
2022-12-31T01:39:12.824Z,4.40
2022-12-31T01:40:12.986Z,4.40
2022-12-31T01:41:12.809Z,4.40
2022-12-31T01:42:12.903Z,4.39
2022-12-31T01:43:12.760Z,4.39
2022-12-31T01:44:12.708Z,4.39
2022-12-31T01:45:12.709Z,4.40
2022-12-31T01:46:12.814Z,4.40
2022-12-31T01:47:12.783Z,4.40
2022-12-31T01:48:12.701Z,4.42
2022-12-31T01:49:12.769Z,4.40
2022-12-31T01:50:12.693Z,4.43
2022-12-31T01:51:12.821Z,4.40
2022-12-31T01:52:12.664Z,4.40
2022-12-31T01:53:12.743Z,4.39
2022-12-31T01:54:12.642Z,4.39
2022-12-31T01:55:12.736Z,4.40
2022-12-31T01:56:12.610Z,4.39
2022-12-31T01:57:12.762Z,4.40
2022-12-31T01:58:12.584Z,4.42
2022-12-31T01:59:12.561Z,4.42
2022-12-31T02:00:12.500Z,4.40
2022-12-31T02:01:12.640Z,4.40
2022-12-31T02:02:12.612Z,4.40
2022-12-31T02:03:12.761Z,4.40
2022-12-31T02:04:12.580Z,4.42
2022-12-31T02:05:12.441Z,4.42
2022-12-31T02:06:12.623Z,4.40
2022-12-31T02:07:12.581Z,4.43
2022-12-31T02:08:12.490Z,4.43
2022-12-31T02:09:12.431Z,4.45
2022-12-31T02:10:12.421Z,4.46
2022-12-31T02:11:12.451Z,4.45
2022-12-31T02:12:12.671Z,4.45
2022-12-31T02:13:12.431Z,4.48
2022-12-31T02:14:12.330Z,4.46
2022-12-31T02:15:12.350Z,4.46
2022-12-31T02:16:12.647Z,4.49
2022-12-31T02:17:12.430Z,4.52
2022-12-31T02:18:12.402Z,4.56
2022-12-31T02:19:12.410Z,4.57
2022-12-31T02:20:12.272Z,4.58
2022-12-31T02:21:12.398Z,4.58
2022-12-31T02:22:12.270Z,4.63
2022-12-31T02:23:12.484Z,4.63
2022-12-31T02:24:12.270Z,4.64
2022-12-31T02:25:12.221Z,4.63
2022-12-31T02:26:12.190Z,4.57
2022-12-31T02:27:12.200Z,4.52
2022-12-31T02:28:12.244Z,4.52
2022-12-31T02:29:12.154Z,4.56
2022-12-31T02:30:12.144Z,4.53
2022-12-31T02:31:12.184Z,4.56
2022-12-31T02:32:12.655Z,4.57
2022-12-31T02:33:12.185Z,4.58
2022-12-31T02:34:12.903Z,4.58
2022-12-31T02:35:12.119Z,4.60
2022-12-31T02:36:12.281Z,4.58
2022-12-31T02:37:12.105Z,4.60
2022-12-31T02:38:12.311Z,4.63
2022-12-31T02:39:12.114Z,4.66
2022-12-31T02:40:12.272Z,4.67
2022-12-31T02:41:11.917Z,4.66
2022-12-31T02:42:12.021Z,4.64
2022-12-31T02:43:12.020Z,4.63
2022-12-31T02:44:11.909Z,4.61
2022-12-31T02:45:12.121Z,4.60
2022-12-31T02:46:11.998Z,4.57
2022-12-31T02:47:11.933Z,4.57
2022-12-31T02:48:11.921Z,4.58
2022-12-31T02:49:11.979Z,4.61
2022-12-31T02:50:11.907Z,4.63
2022-12-31T02:51:11.900Z,4.60
2022-12-31T02:52:11.861Z,4.60
2022-12-31T02:53:12.103Z,4.64
2022-12-31T02:54:11.917Z,4.64
2022-12-31T02:55:11.850Z,4.66
2022-12-31T02:56:11.758Z,4.66
2022-12-31T02:57:11.742Z,4.66
2022-12-31T02:58:11.845Z,4.67
2022-12-31T02:59:11.842Z,4.67
2022-12-31T03:00:11.884Z,4.66
2022-12-31T03:01:11.954Z,4.66
2022-12-31T03:02:12.018Z,4.63
2022-12-31T03:03:11.727Z,4.61
2022-12-31T03:04:11.671Z,4.61
2022-12-31T03:05:11.694Z,4.61
2022-12-31T03:06:11.702Z,4.63
2022-12-31T03:07:11.627Z,4.58
2022-12-31T03:08:11.635Z,4.60
2022-12-31T03:09:11.605Z,4.61
2022-12-31T03:10:11.704Z,4.61
2022-12-31T03:11:11.613Z,4.60
2022-12-31T03:12:11.569Z,4.58
2022-12-31T03:13:11.626Z,4.58
2022-12-31T03:14:11.560Z,4.56
2022-12-31T03:15:11.633Z,4.57
2022-12-31T03:16:11.633Z,4.56
2022-12-31T03:17:11.551Z,4.61
2022-12-31T03:18:11.502Z,4.67
2022-12-31T03:19:11.474Z,4.68
2022-12-31T03:20:11.550Z,4.67
2022-12-31T03:21:11.436Z,4.70
2022-12-31T03:22:11.460Z,4.71
2022-12-31T03:23:11.431Z,4.74
2022-12-31T03:24:11.426Z,4.75
2022-12-31T03:25:11.433Z,4.76
2022-12-31T03:26:11.540Z,4.78
2022-12-31T03:27:11.424Z,4.76
2022-12-31T03:28:11.421Z,4.78
2022-12-31T03:29:11.338Z,4.79
2022-12-31T03:30:11.269Z,4.82
2022-12-31T03:31:11.509Z,4.79
2022-12-31T03:32:11.386Z,4.82
2022-12-31T03:33:11.263Z,4.83
2022-12-31T03:34:11.514Z,4.82
2022-12-31T03:35:11.268Z,4.83
2022-12-31T03:36:11.309Z,4.84
2022-12-31T03:37:11.257Z,4.86
2022-12-31T03:38:11.191Z,4.86
2022-12-31T03:39:11.211Z,4.86
2022-12-31T03:40:11.172Z,4.89
2022-12-31T03:41:11.244Z,4.89
2022-12-31T03:42:11.261Z,4.92
2022-12-31T03:43:11.254Z,4.97
2022-12-31T03:44:11.171Z,4.95
2022-12-31T03:45:11.191Z,4.98
2022-12-31T03:46:11.150Z,5.00
2022-12-31T03:47:11.191Z,5.01
2022-12-31T03:48:11.116Z,5.00
2022-12-31T03:49:11.111Z,4.98
2022-12-31T03:50:11.100Z,5.00
2022-12-31T03:51:11.092Z,5.01
2022-12-31T03:52:11.148Z,5.04
2022-12-31T03:53:11.114Z,5.02
2022-12-31T03:54:11.032Z,5.02
2022-12-31T03:55:11.020Z,5.04
2022-12-31T03:56:10.974Z,5.04
2022-12-31T03:57:10.995Z,5.02
2022-12-31T03:58:11.035Z,5.07
2022-12-31T03:59:13.041Z,5.05
2022-12-31T04:00:10.960Z,5.05
2022-12-31T04:01:11.107Z,5.04
2022-12-31T04:02:11.288Z,5.02
2022-12-31T04:03:11.002Z,5.02
2022-12-31T04:04:10.912Z,5.02
2022-12-31T04:05:10.905Z,5.02
2022-12-31T04:06:10.922Z,5.02
2022-12-31T04:07:10.879Z,5.04
2022-12-31T04:08:10.909Z,5.05
2022-12-31T04:09:10.823Z,5.05
2022-12-31T04:10:10.851Z,5.07
2022-12-31T04:11:12.803Z,5.05
2022-12-31T04:12:10.783Z,5.07
2022-12-31T04:13:10.831Z,5.08
2022-12-31T04:14:10.791Z,5.10
2022-12-31T04:15:10.701Z,5.12
2022-12-31T04:16:10.844Z,5.13
2022-12-31T04:17:10.712Z,5.15
2022-12-31T04:18:10.672Z,5.13
2022-12-31T04:19:10.771Z,5.15
2022-12-31T04:20:10.712Z,5.15
2022-12-31T04:21:10.686Z,5.15
2022-12-31T04:22:10.654Z,5.16
2022-12-31T04:23:10.675Z,5.16
2022-12-31T04:24:10.673Z,5.19
2022-12-31T04:25:10.618Z,5.19
2022-12-31T04:26:10.641Z,5.20
2022-12-31T04:27:10.582Z,5.19
2022-12-31T04:28:10.584Z,5.20
2022-12-31T04:29:10.634Z,5.20
2022-12-31T04:30:10.539Z,5.19
2022-12-31T04:31:10.505Z,5.19
2022-12-31T04:32:10.700Z,5.22
2022-12-31T04:33:10.550Z,5.20
2022-12-31T04:34:10.544Z,5.19
2022-12-31T04:35:10.531Z,5.19
2022-12-31T04:36:10.662Z,5.19
2022-12-31T04:37:10.528Z,5.20
2022-12-31T04:38:10.495Z,5.20
2022-12-31T04:39:10.623Z,5.22
2022-12-31T04:40:10.673Z,5.20
2022-12-31T04:41:10.531Z,5.18
2022-12-31T04:42:10.434Z,5.18
2022-12-31T04:43:10.502Z,5.19
2022-12-31T04:44:10.362Z,5.20
2022-12-31T04:45:10.436Z,5.20
2022-12-31T04:46:10.413Z,5.20
2022-12-31T04:47:10.363Z,5.22
2022-12-31T04:48:10.332Z,5.23
2022-12-31T04:49:10.503Z,5.20
2022-12-31T04:50:10.359Z,5.22
2022-12-31T04:51:10.293Z,5.19
2022-12-31T04:52:10.262Z,5.23
2022-12-31T04:53:10.491Z,5.23
2022-12-31T04:54:10.353Z,5.25
2022-12-31T04:55:10.204Z,5.28
2022-12-31T04:56:10.220Z,5.26
2022-12-31T04:57:10.284Z,5.26
2022-12-31T04:58:10.343Z,5.29
2022-12-31T04:59:10.210Z,5.31
2022-12-31T05:00:10.471Z,5.33
2022-12-31T05:01:10.363Z,5.36
2022-12-31T05:02:10.564Z,5.34
2022-12-31T05:03:10.253Z,5.34
2022-12-31T05:04:10.091Z,5.31
2022-12-31T05:05:10.306Z,5.29
2022-12-31T05:06:10.335Z,5.28
2022-12-31T05:07:10.217Z,5.29
2022-12-31T05:08:10.062Z,5.29
2022-12-31T05:09:10.223Z,5.29
2022-12-31T05:10:10.153Z,5.31
2022-12-31T05:11:10.041Z,5.33
2022-12-31T05:12:10.034Z,5.37
2022-12-31T05:13:10.162Z,5.38
2022-12-31T05:14:10.034Z,5.37
2022-12-31T05:15:10.185Z,5.34
2022-12-31T05:16:10.062Z,5.33
2022-12-31T05:17:10.181Z,5.34
2022-12-31T05:18:10.026Z,5.34
2022-12-31T05:19:09.911Z,5.38
2022-12-31T05:20:10.024Z,5.40
2022-12-31T05:21:10.183Z,5.40
2022-12-31T05:22:09.889Z,5.40
2022-12-31T05:23:09.841Z,5.40
2022-12-31T05:24:09.896Z,5.37
2022-12-31T05:25:09.823Z,5.37
2022-12-31T05:26:09.923Z,5.37
2022-12-31T05:27:09.872Z,5.38
2022-12-31T05:28:10.033Z,5.41
2022-12-31T05:29:09.755Z,5.41
2022-12-31T05:30:09.769Z,5.41
2022-12-31T05:31:09.959Z,5.40
2022-12-31T05:32:09.794Z,5.41
2022-12-31T05:33:09.920Z,5.41
2022-12-31T05:34:10.023Z,5.40
2022-12-31T05:35:09.698Z,5.41
2022-12-31T05:36:09.758Z,5.40
2022-12-31T05:37:09.967Z,5.38
2022-12-31T05:38:09.720Z,5.38
2022-12-31T05:39:09.880Z,5.37
2022-12-31T05:40:09.721Z,5.34
2022-12-31T05:41:09.867Z,5.31
2022-12-31T05:42:09.715Z,5.33
2022-12-31T05:43:09.633Z,5.34
2022-12-31T05:44:09.683Z,5.33
2022-12-31T05:45:09.893Z,5.34
2022-12-31T05:46:09.788Z,5.31
2022-12-31T05:47:09.540Z,5.36
2022-12-31T05:48:10.022Z,5.37
2022-12-31T05:49:09.532Z,5.34
2022-12-31T05:50:09.510Z,5.37
2022-12-31T05:51:09.520Z,5.37
2022-12-31T05:52:09.500Z,5.37
2022-12-31T05:53:09.557Z,5.38
2022-12-31T05:54:09.504Z,5.40
2022-12-31T05:55:09.544Z,5.40
2022-12-31T05:56:09.414Z,5.43
2022-12-31T05:57:09.570Z,5.46
2022-12-31T05:58:09.494Z,5.46
2022-12-31T05:59:09.543Z,5.46
2022-12-31T06:00:09.451Z,5.49
2022-12-31T06:01:09.473Z,5.47
2022-12-31T06:02:09.379Z,5.47
2022-12-31T06:03:09.618Z,5.49
2022-12-31T06:04:09.485Z,5.51
2022-12-31T06:05:09.347Z,5.49
2022-12-31T06:06:09.426Z,5.49
2022-12-31T06:07:09.341Z,5.46
2022-12-31T06:08:09.376Z,5.46
2022-12-31T06:09:09.544Z,5.46
2022-12-31T06:10:09.370Z,5.46
2022-12-31T06:11:09.232Z,5.46
2022-12-31T06:12:09.246Z,5.46
2022-12-31T06:13:09.245Z,5.44
2022-12-31T06:14:09.257Z,5.41
2022-12-31T06:15:09.243Z,5.43
2022-12-31T06:16:09.286Z,5.38
2022-12-31T06:17:09.234Z,5.38
2022-12-31T06:18:09.399Z,5.38
2022-12-31T06:19:09.153Z,5.40
2022-12-31T06:20:13.099Z,5.38
2022-12-31T06:21:09.163Z,5.37
2022-12-31T06:22:09.368Z,5.36
2022-12-31T06:23:09.224Z,5.37
2022-12-31T06:24:09.124Z,5.38
2022-12-31T06:25:09.548Z,5.40
2022-12-31T06:26:09.111Z,5.41
2022-12-31T06:27:09.266Z,5.41
2022-12-31T06:28:12.181Z,5.41
2022-12-31T06:29:09.206Z,5.41
2022-12-31T06:30:09.111Z,5.40
2022-12-31T06:31:09.273Z,5.40
2022-12-31T06:32:09.071Z,5.40
2022-12-31T06:33:09.224Z,5.41
2022-12-31T06:34:08.931Z,5.44
2022-12-31T06:35:08.882Z,5.43
2022-12-31T06:36:08.968Z,5.46
2022-12-31T06:37:08.942Z,5.46
2022-12-31T06:38:08.922Z,5.44
2022-12-31T06:39:08.932Z,5.44
2022-12-31T06:40:09.109Z,5.43
2022-12-31T06:41:08.986Z,5.44
2022-12-31T06:42:08.830Z,5.44
2022-12-31T06:43:08.922Z,5.44
2022-12-31T06:44:08.891Z,5.38
2022-12-31T06:45:08.905Z,5.40
2022-12-31T06:46:09.169Z,5.37
2022-12-31T06:47:08.901Z,5.34
2022-12-31T06:48:08.790Z,5.34
2022-12-31T06:49:08.741Z,5.29
2022-12-31T06:50:08.754Z,5.29
2022-12-31T06:51:15.056Z,5.28
2022-12-31T06:52:08.842Z,5.25
2022-12-31T06:53:08.672Z,5.23
2022-12-31T06:54:08.733Z,5.22
2022-12-31T06:55:08.673Z,5.19
2022-12-31T06:56:08.761Z,5.16
2022-12-31T06:57:08.752Z,5.13
2022-12-31T06:58:08.670Z,5.12
2022-12-31T06:59:08.662Z,5.12
2022-12-31T07:00:08.631Z,5.10
2022-12-31T07:01:08.946Z,5.12
2022-12-31T07:02:08.718Z,5.15
2022-12-31T07:03:08.622Z,5.19
2022-12-31T07:04:08.608Z,5.18
2022-12-31T07:05:08.571Z,5.20
2022-12-31T07:06:08.542Z,5.23
2022-12-31T07:07:10.271Z,5.25
2022-12-31T07:08:08.509Z,5.25
2022-12-31T07:09:08.551Z,5.25
2022-12-31T07:10:08.507Z,5.23
2022-12-31T07:11:08.468Z,5.25
2022-12-31T07:12:08.753Z,5.29
2022-12-31T07:13:08.588Z,5.28
2022-12-31T07:14:08.476Z,5.31
2022-12-31T07:15:08.492Z,5.34
2022-12-31T07:16:08.466Z,5.36
2022-12-31T07:17:08.393Z,5.40
2022-12-31T07:18:08.413Z,5.41
2022-12-31T07:19:08.376Z,5.41
2022-12-31T07:20:08.353Z,5.43
2022-12-31T07:21:08.345Z,5.44
2022-12-31T07:22:08.378Z,5.49
2022-12-31T07:23:08.421Z,5.49
2022-12-31T07:24:08.352Z,5.54
2022-12-31T07:25:08.308Z,5.55
2022-12-31T07:26:08.436Z,5.55
2022-12-31T07:27:08.286Z,5.58
2022-12-31T07:28:08.430Z,5.59
2022-12-31T07:29:08.343Z,5.56
2022-12-31T07:30:08.216Z,5.59
2022-12-31T07:31:08.314Z,5.62
2022-12-31T07:32:08.192Z,5.64
2022-12-31T07:33:08.282Z,5.64
2022-12-31T07:34:08.258Z,5.64
2022-12-31T07:35:08.281Z,5.69
2022-12-31T07:36:08.458Z,5.70
2022-12-31T07:37:08.133Z,5.72
2022-12-31T07:38:08.422Z,5.73
2022-12-31T07:39:08.591Z,5.74
2022-12-31T07:40:08.193Z,5.77
2022-12-31T07:41:10.080Z,5.80
2022-12-31T07:42:08.104Z,5.83
2022-12-31T07:43:08.101Z,5.81
2022-12-31T07:44:08.033Z,5.84
2022-12-31T07:45:08.123Z,5.87
2022-12-31T07:46:08.251Z,5.90
2022-12-31T07:47:08.250Z,5.91
2022-12-31T07:48:08.112Z,5.95
2022-12-31T07:49:07.987Z,5.95
2022-12-31T07:50:07.962Z,5.98
2022-12-31T07:51:08.062Z,5.98
2022-12-31T07:52:07.940Z,5.99
2022-12-31T07:53:07.981Z,6.05
2022-12-31T07:54:13.629Z,6.06
2022-12-31T07:55:07.944Z,6.06
2022-12-31T07:56:08.193Z,6.09
2022-12-31T07:57:07.980Z,6.10
2022-12-31T07:58:07.882Z,6.13
2022-12-31T07:59:07.874Z,6.15
2022-12-31T08:00:07.852Z,6.15
2022-12-31T08:01:08.095Z,6.16
2022-12-31T08:02:08.323Z,6.16
2022-12-31T08:03:08.010Z,6.17
2022-12-31T08:04:07.775Z,6.17
2022-12-31T08:05:07.787Z,6.16
2022-12-31T08:06:07.722Z,6.15
2022-12-31T08:07:07.795Z,6.15
2022-12-31T08:08:07.784Z,6.16
2022-12-31T08:09:07.712Z,6.22
2022-12-31T08:10:12.555Z,6.25
2022-12-31T08:11:07.727Z,6.26
2022-12-31T08:12:07.792Z,6.28
2022-12-31T08:13:07.691Z,6.29
2022-12-31T08:14:07.693Z,6.32
2022-12-31T08:15:07.643Z,6.32
2022-12-31T08:16:07.696Z,6.32
2022-12-31T08:17:07.717Z,6.34
2022-12-31T08:18:07.639Z,6.38
2022-12-31T08:19:07.613Z,6.36
2022-12-31T08:20:07.552Z,6.36
2022-12-31T08:21:07.603Z,6.36
2022-12-31T08:22:07.798Z,6.39
2022-12-31T08:23:07.556Z,6.41
2022-12-31T08:24:07.503Z,6.43
2022-12-31T08:25:07.668Z,6.47
2022-12-31T08:26:07.527Z,6.50
2022-12-31T08:27:07.472Z,6.54
2022-12-31T08:28:07.473Z,6.57
2022-12-31T08:29:07.468Z,6.62
2022-12-31T08:30:07.461Z,6.60
2022-12-31T08:31:07.862Z,6.60
2022-12-31T08:32:07.416Z,6.60
2022-12-31T08:33:07.430Z,6.62
2022-12-31T08:34:07.448Z,6.65
2022-12-31T08:35:07.402Z,6.68
2022-12-31T08:36:07.506Z,6.72
2022-12-31T08:37:07.328Z,6.74
2022-12-31T08:38:07.316Z,6.77
2022-12-31T08:39:07.364Z,6.78
2022-12-31T08:40:07.300Z,6.77
2022-12-31T08:41:07.303Z,6.77
2022-12-31T08:42:07.243Z,6.80
2022-12-31T08:43:07.261Z,6.82
2022-12-31T08:44:07.336Z,6.86
2022-12-31T08:45:07.223Z,6.87
2022-12-31T08:46:07.249Z,6.92
2022-12-31T08:47:07.227Z,6.93
2022-12-31T08:48:07.161Z,7.00
2022-12-31T08:49:07.211Z,7.03
2022-12-31T08:50:07.241Z,7.00
2022-12-31T08:51:07.187Z,7.00
2022-12-31T08:52:07.172Z,7.05
2022-12-31T08:53:07.322Z,7.07
2022-12-31T08:54:07.145Z,7.08
2022-12-31T08:55:07.154Z,7.08
2022-12-31T08:56:07.161Z,7.10
2022-12-31T08:57:07.057Z,7.14
2022-12-31T08:58:07.079Z,7.19
2022-12-31T08:59:07.283Z,7.22
2022-12-31T09:00:07.089Z,7.29
2022-12-31T09:01:07.151Z,7.33
2022-12-31T09:02:07.387Z,7.36
2022-12-31T09:03:07.011Z,7.37
2022-12-31T09:04:07.025Z,7.37
2022-12-31T09:05:07.017Z,7.39
2022-12-31T09:06:07.133Z,7.37
2022-12-31T09:07:06.954Z,7.37
2022-12-31T09:08:06.925Z,7.44
2022-12-31T09:09:06.951Z,7.50
2022-12-31T09:10:06.904Z,7.56
2022-12-31T09:11:06.991Z,7.62
2022-12-31T09:12:06.883Z,7.67
2022-12-31T09:13:06.895Z,7.72
2022-12-31T09:14:06.847Z,7.75
2022-12-31T09:15:06.835Z,7.78
2022-12-31T09:16:07.038Z,7.74
2022-12-31T09:17:06.794Z,7.74
2022-12-31T09:18:06.833Z,7.74
2022-12-31T09:19:07.012Z,7.72
2022-12-31T09:20:06.884Z,7.74
2022-12-31T09:21:06.961Z,7.69
2022-12-31T09:22:06.821Z,7.70
2022-12-31T09:23:06.983Z,7.77
2022-12-31T09:24:09.469Z,7.81
2022-12-31T09:25:06.697Z,7.83
2022-12-31T09:26:06.847Z,7.88
2022-12-31T09:27:06.762Z,7.90
2022-12-31T09:28:06.838Z,7.93
2022-12-31T09:29:06.669Z,7.96
2022-12-31T09:30:06.643Z,8.01
2022-12-31T09:31:06.664Z,8.02
2022-12-31T09:32:06.821Z,8.05
2022-12-31T09:33:06.661Z,8.05
2022-12-31T09:34:06.571Z,8.02
2022-12-31T09:35:06.582Z,7.99
2022-12-31T09:36:06.555Z,7.95
2022-12-31T09:37:06.765Z,7.91
2022-12-31T09:38:11.202Z,7.87
2022-12-31T09:39:06.647Z,7.85
2022-12-31T09:40:06.491Z,7.87
2022-12-31T09:41:06.465Z,7.88
2022-12-31T09:42:06.497Z,7.95
2022-12-31T09:43:06.519Z,8.02
2022-12-31T09:44:06.513Z,8.08
2022-12-31T09:45:06.476Z,8.08
2022-12-31T09:46:06.523Z,8.09
2022-12-31T09:47:06.680Z,8.16
2022-12-31T09:48:06.600Z,8.17
2022-12-31T09:49:06.416Z,8.17
2022-12-31T09:50:06.527Z,8.16
2022-12-31T09:51:06.387Z,8.14
2022-12-31T09:52:06.511Z,8.17
2022-12-31T09:53:06.362Z,8.16
2022-12-31T09:54:06.387Z,8.16
2022-12-31T09:55:06.302Z,8.13
2022-12-31T09:56:06.302Z,8.13
2022-12-31T09:57:06.268Z,8.11
2022-12-31T09:58:06.255Z,8.13
2022-12-31T09:59:06.343Z,8.13
2022-12-31T10:00:06.249Z,8.11
2022-12-31T10:01:06.328Z,8.08
2022-12-31T10:02:06.397Z,8.08
2022-12-31T10:03:06.282Z,8.06
2022-12-31T10:04:06.203Z,8.06
2022-12-31T10:05:06.251Z,8.06
2022-12-31T10:06:06.196Z,8.05
2022-12-31T10:07:06.102Z,8.03
2022-12-31T10:08:06.152Z,8.02
2022-12-31T10:09:06.133Z,7.99
2022-12-31T10:10:06.263Z,7.96
2022-12-31T10:11:06.078Z,7.91
2022-12-31T10:12:06.115Z,7.91
2022-12-31T10:13:06.055Z,7.91
2022-12-31T10:14:06.203Z,7.95
2022-12-31T10:15:06.013Z,7.99
2022-12-31T10:16:06.113Z,8.05
2022-12-31T10:17:06.046Z,8.08
2022-12-31T10:18:05.972Z,8.17
2022-12-31T10:19:06.002Z,8.21
2022-12-31T10:20:05.979Z,8.24
2022-12-31T10:21:06.123Z,8.24
2022-12-31T10:22:05.962Z,8.31
2022-12-31T10:23:05.957Z,8.34
2022-12-31T10:24:05.972Z,8.34
2022-12-31T10:25:06.044Z,8.36
2022-12-31T10:26:05.914Z,8.44
2022-12-31T10:27:06.037Z,8.46
2022-12-31T10:28:05.843Z,8.50
2022-12-31T10:29:05.863Z,8.54
2022-12-31T10:30:05.833Z,8.54
2022-12-31T10:31:05.864Z,8.52
2022-12-31T10:32:05.894Z,8.50
2022-12-31T10:33:05.772Z,8.46
2022-12-31T10:34:05.822Z,8.44
2022-12-31T10:35:05.743Z,8.41
2022-12-31T10:36:05.775Z,8.38
2022-12-31T10:37:05.777Z,8.36
2022-12-31T10:38:05.801Z,8.39
2022-12-31T10:39:10.778Z,8.39
2022-12-31T10:40:05.738Z,8.41
2022-12-31T10:41:05.692Z,8.44
2022-12-31T10:42:05.715Z,8.49
2022-12-31T10:43:05.752Z,8.53
2022-12-31T10:44:05.662Z,8.59
2022-12-31T10:45:05.663Z,8.66
2022-12-31T10:46:05.665Z,8.71
2022-12-31T10:47:05.612Z,8.77
2022-12-31T10:48:05.596Z,8.82
2022-12-31T10:49:05.637Z,8.89
2022-12-31T10:50:05.531Z,8.93
2022-12-31T10:51:05.541Z,9.02
2022-12-31T10:52:05.551Z,9.09
2022-12-31T10:53:05.516Z,9.16
2022-12-31T10:54:05.615Z,9.24
2022-12-31T10:55:05.472Z,9.29
2022-12-31T10:56:05.502Z,9.31
2022-12-31T10:57:05.482Z,9.27
2022-12-31T10:58:05.483Z,9.27
2022-12-31T10:59:05.463Z,9.29
2022-12-31T11:00:05.511Z,9.29
2022-12-31T11:01:05.603Z,9.29
2022-12-31T11:02:05.612Z,9.26
2022-12-31T11:03:05.485Z,9.22
2022-12-31T11:04:05.412Z,9.21
2022-12-31T11:05:05.718Z,9.21
2022-12-31T11:06:05.393Z,9.24
2022-12-31T11:07:05.356Z,9.24
2022-12-31T11:08:05.343Z,9.27
2022-12-31T11:09:05.315Z,9.29
2022-12-31T11:10:05.315Z,9.30
2022-12-31T11:11:05.341Z,9.29
2022-12-31T11:12:05.241Z,9.24
2022-12-31T11:13:05.240Z,9.21
2022-12-31T11:14:05.223Z,9.19
2022-12-31T11:15:05.255Z,9.16
2022-12-31T11:16:05.389Z,9.18
2022-12-31T11:17:05.233Z,9.21
2022-12-31T11:18:05.201Z,9.22
2022-12-31T11:19:05.204Z,9.30
2022-12-31T11:20:05.196Z,9.34
2022-12-31T11:21:05.151Z,9.36
2022-12-31T11:22:05.220Z,9.36
2022-12-31T11:23:05.153Z,9.36
2022-12-31T11:24:05.106Z,9.37
2022-12-31T11:25:05.111Z,9.39
2022-12-31T11:26:05.066Z,9.39
2022-12-31T11:27:05.113Z,9.40
2022-12-31T11:28:05.056Z,9.45
2022-12-31T11:29:05.054Z,9.51
2022-12-31T11:30:05.001Z,9.56
2022-12-31T11:31:05.002Z,9.64
2022-12-31T11:32:05.007Z,9.69
2022-12-31T11:33:05.064Z,9.73
2022-12-31T11:34:05.019Z,9.74
2022-12-31T11:35:05.013Z,9.77
2022-12-31T11:36:04.962Z,9.84
2022-12-31T11:37:04.943Z,9.91
2022-12-31T11:38:05.053Z,9.99
2022-12-31T11:39:04.902Z,10.02
2022-12-31T11:40:04.890Z,10.05
2022-12-31T11:41:04.873Z,10.10
2022-12-31T11:42:04.847Z,10.17
2022-12-31T11:43:04.884Z,10.24
2022-12-31T11:44:04.911Z,10.31
2022-12-31T11:45:04.823Z,10.36
2022-12-31T11:46:04.812Z,10.39
2022-12-31T11:47:05.061Z,10.48
2022-12-31T11:48:29.716Z,10.48
2022-12-31T11:49:04.843Z,10.53
2022-12-31T11:50:04.893Z,10.57
2022-12-31T11:51:04.764Z,10.58
2022-12-31T11:52:04.777Z,10.59
2022-12-31T11:53:04.783Z,10.59
2022-12-31T11:54:04.740Z,10.61
2022-12-31T11:55:04.857Z,10.64
2022-12-31T11:56:04.915Z,10.72
2022-12-31T11:57:04.743Z,10.77
2022-12-31T11:58:04.903Z,10.83
2022-12-31T11:59:09.712Z,10.90
2022-12-31T12:00:04.682Z,11.00
2022-12-31T12:01:04.833Z,11.08
2022-12-31T12:02:04.631Z,11.15
2022-12-31T12:03:04.663Z,11.18
2022-12-31T12:04:04.673Z,11.16
2022-12-31T12:05:10.651Z,11.20
2022-12-31T12:06:04.615Z,11.19
2022-12-31T12:07:04.503Z,11.25
2022-12-31T12:08:04.491Z,11.30
2022-12-31T12:09:04.862Z,11.33
2022-12-31T12:10:04.592Z,11.40
2022-12-31T12:11:04.522Z,11.38
2022-12-31T12:12:04.526Z,11.40
2022-12-31T12:13:04.471Z,11.51
2022-12-31T12:14:04.453Z,11.58
2022-12-31T12:15:04.443Z,11.62
2022-12-31T12:16:04.633Z,11.71
2022-12-31T12:17:05.665Z,11.73
2022-12-31T12:18:04.581Z,11.76
2022-12-31T12:19:04.433Z,11.73
2022-12-31T12:20:04.560Z,11.71
2022-12-31T12:21:04.444Z,11.71
2022-12-31T12:22:04.372Z,11.70
2022-12-31T12:23:04.421Z,11.68
2022-12-31T12:24:04.347Z,11.70
2022-12-31T12:25:04.444Z,11.68
2022-12-31T12:26:04.352Z,11.67
2022-12-31T12:27:04.431Z,11.67
2022-12-31T12:28:04.263Z,11.68
2022-12-31T12:29:04.247Z,11.70
2022-12-31T12:30:04.239Z,11.70
2022-12-31T12:31:04.502Z,11.65
2022-12-31T12:32:04.368Z,11.58
2022-12-31T12:33:04.184Z,11.58
2022-12-31T12:34:04.251Z,11.60
2022-12-31T12:35:05.208Z,11.62
2022-12-31T12:36:04.262Z,11.65
2022-12-31T12:37:04.192Z,11.70
2022-12-31T12:38:04.254Z,11.74
2022-12-31T12:39:04.101Z,11.78
2022-12-31T12:40:04.101Z,11.80
2022-12-31T12:41:04.109Z,11.81
2022-12-31T12:42:04.142Z,11.83
2022-12-31T12:43:04.147Z,11.77
2022-12-31T12:44:04.102Z,11.73
2022-12-31T12:45:04.142Z,11.68
2022-12-31T12:46:04.261Z,11.63
2022-12-31T12:47:04.114Z,11.58
2022-12-31T12:48:04.091Z,11.51
2022-12-31T12:49:04.111Z,11.40
2022-12-31T12:50:04.063Z,11.35
2022-12-31T12:51:03.967Z,11.34
2022-12-31T12:52:03.959Z,11.27
2022-12-31T12:53:04.065Z,11.25
2022-12-31T12:54:03.952Z,11.23
2022-12-31T12:55:03.892Z,11.22
2022-12-31T12:56:03.970Z,11.18
2022-12-31T12:57:04.086Z,11.19
2022-12-31T12:58:03.907Z,11.18
2022-12-31T12:59:04.157Z,11.16
2022-12-31T13:00:03.940Z,11.16
2022-12-31T13:01:04.228Z,11.13
2022-12-31T13:02:03.997Z,11.08
2022-12-31T13:03:03.907Z,11.08
2022-12-31T13:05:03.824Z,11.07
2022-12-31T13:06:03.959Z,11.10
2022-12-31T13:07:03.804Z,11.13
2022-12-31T13:08:03.960Z,11.15
2022-12-31T13:09:03.762Z,11.15
2022-12-31T13:10:03.692Z,11.13
2022-12-31T13:11:03.705Z,11.16
2022-12-31T13:12:07.524Z,11.15
2022-12-31T13:14:03.683Z,11.19
2022-12-31T13:15:03.733Z,11.22
2022-12-31T13:16:03.646Z,11.22
2022-12-31T13:17:03.640Z,11.15